Time;durP1;ratioP1;P1;durP2;ratioP2;P2;SDS_P1;SDS_P2;PMS_P1;PMS_P2;Temp;Humidity;BMP_temperature;BMP_pressure;BME280_temperature;BME280_humidity;BME280_pressure;Samples;Min_cycle;Max_cycle;Signal;HPM_P1;HPM_P2
2021/06/05 00:00:54;;;;;;;27.17;24.23;;;19.30;99.90;;;;;;5075873;28;20442;-88
2021/06/05 00:03:25;;;;;;;29.93;24.23;;;19.30;99.90;;;;;;5051025;28;20779;-89
2021/06/05 00:05:57;;;;;;;29.27;26.07;;;19.30;99.90;;;;;;5075366;28;20436;-89
2021/06/05 00:08:28;;;;;;;28.27;23.33;;;19.30;99.90;;;;;;5056433;28;20454;-88
2021/06/05 00:11:03;;;;;;;27.40;23.47;;;19.30;99.90;;;;;;5053110;28;20598;-89
2021/06/05 00:13:35;;;;;;;28.77;23.63;;;19.40;99.90;;;;;;5060324;28;20419;-89
2021/06/05 00:16:05;;;;;;;26.17;23.00;;;19.40;99.90;;;;;;5056245;28;20509;-88
2021/06/05 00:18:34;;;;;;;29.50;24.10;;;19.30;99.90;;;;;;5060712;28;20766;-89
2021/06/05 00:21:03;;;;;;;26.10;22.13;;;19.30;99.90;;;;;;5059162;28;20485;-90
2021/06/05 00:23:32;;;;;;;24.87;22.17;;;19.30;99.90;;;;;;5047293;28;20519;-89
2021/06/05 00:26:03;;;;;;;26.37;22.87;;;19.30;99.90;;;;;;5028421;28;20431;-88
2021/06/05 00:28:30;;;;;;;26.53;22.57;;;19.30;99.90;;;;;;5045943;28;20567;-89
2021/06/05 00:30:56;;;;;;;26.43;23.60;;;19.30;99.90;;;;;;5038579;28;20478;-88
2021/06/05 00:33:23;;;;;;;34.00;24.43;;;19.30;99.90;;;;;;5046591;28;20424;-89
2021/06/05 00:35:52;;;;;;;25.13;22.33;;;19.20;99.90;;;;;;5046405;28;20433;-86
2021/06/05 00:38:19;;;;;;;28.40;23.87;;;19.30;99.90;;;;;;5035832;28;20444;-87
2021/06/05 00:40:50;;;;;;;28.20;24.97;;;19.30;99.90;;;;;;5064302;28;20813;-90
2021/06/05 00:43:26;;;;;;;32.50;24.23;;;19.20;99.90;;;;;;5049008;28;20426;-89
2021/06/05 00:45:52;;;;;;;30.67;23.37;;;19.20;99.90;;;;;;5056920;28;20454;-86
2021/06/05 00:48:22;;;;;;;30.70;24.90;;;19.20;99.90;;;;;;5056366;28;20741;-87
2021/06/05 00:50:57;;;;;;;26.80;23.77;;;19.10;99.90;;;;;;5054665;28;20479;-88
2021/06/05 00:53:28;;;;;;;28.40;23.83;;;19.10;99.90;;;;;;5062789;28;20450;-88
2021/06/05 00:56:03;;;;;;;27.90;23.40;;;19.10;99.90;;;;;;5039696;28;20462;-88
2021/06/05 00:58:30;;;;;;;30.30;24.87;;;19.20;99.90;;;;;;5045825;28;20534;-88
2021/06/05 01:01:09;;;;;;;29.43;24.90;;;19.20;99.90;;;;;;5051655;28;20845;-88
2021/06/05 01:03:39;;;;;;;26.37;23.57;;;19.20;99.90;;;;;;5044840;28;20443;-89
2021/06/05 01:06:17;;;;;;;25.30;22.17;;;19.20;99.90;;;;;;5044285;28;20441;-88
2021/06/05 01:08:51;;;;;;;27.10;24.20;;;19.30;99.90;;;;;;5029213;28;20423;-88
2021/06/05 01:11:47;;;;;;;35.33;24.33;;;19.30;99.90;;;;;;5054482;28;20955;-88
2021/06/05 01:14:35;;;;;;;27.30;23.30;;;19.40;99.90;;;;;;5056960;28;20430;-88
2021/06/05 01:17:18;;;;;;;34.43;24.83;;;19.40;99.90;;;;;;5063617;28;20410;-87
2021/06/05 01:19:50;;;;;;;28.13;25.13;;;19.40;99.90;;;;;;5056929;28;20890;-88
2021/06/05 01:22:32;;;;;;;26.47;23.77;;;19.50;99.90;;;;;;5056505;28;20500;-87
2021/06/05 01:25:06;;;;;;;31.63;25.77;;;19.50;99.90;;;;;;5055401;28;20477;-87
2021/06/05 01:27:45;;;;;;;31.60;25.57;;;19.50;99.90;;;;;;5053899;28;20433;-88
2021/06/05 01:30:28;;;;;;;32.07;26.07;;;19.50;99.90;;;;;;5057072;28;20469;-88
2021/06/05 01:32:57;;;;;;;31.80;24.93;;;19.60;99.90;;;;;;5038781;28;20446;-87
2021/06/05 01:35:28;;;;;;;32.83;27.63;;;19.60;99.90;;;;;;5033342;28;20440;-88
2021/06/05 01:37:56;;;;;;;33.77;26.80;;;19.60;99.90;;;;;;5049325;28;20499;-87
2021/06/05 01:40:27;;;;;;;30.03;25.87;;;19.60;99.90;;;;;;5069681;28;20885;-87
2021/06/05 01:42:56;;;;;;;30.40;26.70;;;19.60;99.90;;;;;;5031113;28;20423;-87
2021/06/05 01:45:36;;;;;;;31.53;27.53;;;19.60;99.90;;;;;;5061517;28;20455;-88
2021/06/05 01:48:06;;;;;;;29.67;26.07;;;19.60;99.90;;;;;;5033452;28;20473;-88
2021/06/05 01:50:41;;;;;;;32.30;25.30;;;19.60;99.90;;;;;;5059381;28;20529;-88
2021/06/05 01:53:16;;;;;;;30.40;27.10;;;19.60;99.90;;;;;;5051714;28;20424;-88
2021/06/05 01:55:47;;;;;;;35.00;27.27;;;19.60;99.90;;;;;;5034715;28;20450;-87
2021/06/05 01:58:17;;;;;;;34.43;27.20;;;19.60;99.90;;;;;;5041541;28;21008;-87
2021/06/05 02:01:00;;;;;;;36.67;27.47;;;19.60;99.90;;;;;;5043270;28;20461;-88
2021/06/05 02:03:35;;;;;;;35.00;29.13;;;19.60;99.90;;;;;;5037460;28;20443;-87
2021/06/05 02:06:21;;;;;;;39.47;30.90;;;19.60;99.90;;;;;;5023026;28;20449;-88
2021/06/05 02:08:53;;;;;;;38.30;29.83;;;19.50;99.90;;;;;;5051137;28;20438;-85
2021/06/05 02:11:26;;;;;;;38.17;31.03;;;19.50;99.90;;;;;;5066132;28;20962;-88
2021/06/05 02:14:07;;;;;;;39.90;31.03;;;19.50;99.90;;;;;;5058205;28;20538;-88
2021/06/05 02:16:42;;;;;;;39.23;31.63;;;19.40;99.90;;;;;;5032991;28;21031;-87
2021/06/05 02:19:14;;;;;;;39.83;32.17;;;19.30;99.90;;;;;;5048588;28;20503;-87
2021/06/05 02:21:52;;;;;;;36.73;31.07;;;19.30;99.90;;;;;;5050000;28;20905;-87
2021/06/05 02:24:29;;;;;;;41.50;31.70;;;19.30;99.90;;;;;;5040353;28;20419;-87
2021/06/05 02:26:57;;;;;;;41.03;31.63;;;19.40;99.90;;;;;;5040178;28;21032;-87
2021/06/05 02:29:35;;;;;;;41.63;31.10;;;19.40;99.90;;;;;;5035410;28;20437;-88
2021/06/05 02:32:09;;;;;;;40.40;31.70;;;19.30;99.90;;;;;;5054375;28;20470;-87
2021/06/05 02:34:36;;;;;;;44.60;31.63;;;19.30;99.90;;;;;;5052251;28;20439;-86
2021/06/05 02:37:06;;;;;;;38.50;30.07;;;19.30;99.90;;;;;;5059611;28;20509;-86
2021/06/05 02:39:34;;;;;;;37.17;30.23;;;19.30;99.90;;;;;;5049481;28;20474;-88
2021/06/05 02:42:19;;;;;;;41.63;30.60;;;19.30;99.90;;;;;;5055325;28;20525;-87
2021/06/05 02:44:53;;;;;;;39.63;30.67;;;19.30;99.90;;;;;;5033717;28;20813;-87
2021/06/05 02:47:25;;;;;;;36.90;31.30;;;19.20;99.90;;;;;;5045406;28;20480;-88
2021/06/05 02:49:52;;;;;;;41.60;30.43;;;19.20;99.90;;;;;;5020494;28;20429;-88
2021/06/05 02:52:33;;;;;;;41.50;30.07;;;19.20;99.90;;;;;;5051716;28;20505;-88
2021/06/05 02:55:21;;;;;;;37.20;28.03;;;19.10;99.90;;;;;;5054240;28;20434;-88
2021/06/05 02:57:53;;;;;;;38.37;30.00;;;19.10;99.90;;;;;;5035001;28;20842;-89
2021/06/05 03:00:33;;;;;;;42.50;31.63;;;19.00;99.90;;;;;;5041266;28;20425;-88
2021/06/05 03:03:02;;;;;;;39.10;29.37;;;19.00;99.90;;;;;;5052658;28;20432;-88
2021/06/05 03:05:29;;;;;;;41.33;31.00;;;19.00;99.90;;;;;;5035612;28;20427;-86
2021/06/05 03:08:00;;;;;;;43.30;31.07;;;18.90;99.90;;;;;;5052160;28;20438;-86
2021/06/05 03:10:27;;;;;;;44.20;31.57;;;18.90;99.90;;;;;;5055746;28;20515;-86
2021/06/05 03:12:54;;;;;;;44.30;31.13;;;18.80;99.90;;;;;;5031999;28;20477;-86
2021/06/05 03:15:22;;;;;;;39.63;29.70;;;18.80;99.90;;;;;;5023255;28;20515;-86
2021/06/05 03:17:50;;;;;;;41.50;29.40;;;18.80;99.90;;;;;;5046485;28;20534;-86
2021/06/05 03:20:20;;;;;;;38.40;30.13;;;18.80;99.90;;;;;;5043211;28;20929;-87
2021/06/05 03:22:46;;;;;;;37.70;29.13;;;18.70;99.90;;;;;;5050563;28;20436;-87
2021/06/05 03:25:17;;;;;;;40.33;29.97;;;18.70;99.90;;;;;;5053658;28;20837;-86
2021/06/05 03:27:46;;;;;;;40.60;29.70;;;18.60;99.90;;;;;;5033566;28;20887;-87
2021/06/05 03:30:16;;;;;;;41.07;30.50;;;18.60;99.90;;;;;;5049500;28;20512;-87
2021/06/05 03:32:46;;;;;;;32.50;26.23;;;18.60;99.90;;;;;;5034919;28;20482;-86
2021/06/05 03:35:15;;;;;;;41.63;29.80;;;18.60;99.90;;;;;;5017403;28;20435;-87
2021/06/05 03:37:44;;;;;;;49.80;32.47;;;18.60;99.90;;;;;;5029903;28;20968;-86
2021/06/05 03:40:17;;;;;;;45.40;32.70;;;18.60;99.90;;;;;;5011591;28;20439;-87
2021/06/05 03:42:52;;;;;;;41.40;28.27;;;18.60;99.90;;;;;;5014047;28;20452;-87
2021/06/05 03:45:20;;;;;;;44.07;31.87;;;18.60;99.90;;;;;;5030873;28;21222;-86
2021/06/05 03:47:46;;;;;;;46.40;31.87;;;18.70;99.90;;;;;;5014618;28;20442;-87
2021/06/05 03:50:20;;;;;;;49.57;34.23;;;18.60;99.90;;;;;;5041708;28;20432;-87
2021/06/05 03:52:49;;;;;;;45.40;32.83;;;18.60;99.90;;;;;;5035388;28;20833;-86
2021/06/05 03:55:20;;;;;;;44.63;31.13;;;18.70;99.90;;;;;;5029186;28;20431;-86
2021/06/05 03:57:46;;;;;;;47.57;33.10;;;18.60;99.90;;;;;;5024307;28;20441;-87
2021/06/05 04:00:20;;;;;;;57.20;33.93;;;18.50;99.90;;;;;;5033188;28;20419;-79
2021/06/05 04:02:47;;;;;;;45.80;33.70;;;18.50;99.90;;;;;;5008925;28;20843;-79
2021/06/05 04:05:14;;;;;;;44.60;33.17;;;18.60;99.90;;;;;;5033320;28;20438;-79
2021/06/05 04:07:40;;;;;;;43.43;30.50;;;18.60;99.90;;;;;;5033007;28;20779;-78
2021/06/05 04:10:09;;;;;;;38.90;31.37;;;18.70;99.90;;;;;;5042604;28;20450;-78
2021/06/05 04:12:35;;;;;;;45.10;32.57;;;18.70;99.90;;;;;;5043361;28;20474;-79
2021/06/05 04:15:05;;;;;;;46.20;32.13;;;18.70;99.90;;;;;;5034795;28;20432;-79
2021/06/05 04:17:34;;;;;;;46.50;34.10;;;18.70;99.90;;;;;;5018358;28;20439;-78
2021/06/05 04:20:00;;;;;;;43.77;31.20;;;18.70;99.90;;;;;;5035181;28;20426;-78
2021/06/05 04:22:26;;;;;;;45.70;33.30;;;18.80;99.90;;;;;;5043599;28;20472;-78
2021/06/05 04:24:52;;;;;;;45.97;33.47;;;18.80;99.90;;;;;;5034693;28;20640;-79
2021/06/05 04:27:21;;;;;;;39.90;30.20;;;18.80;99.90;;;;;;5034748;28;20517;-79
2021/06/05 04:29:49;;;;;;;43.10;32.90;;;18.80;99.90;;;;;;5036193;28;20470;-79
2021/06/05 04:32:15;;;;;;;40.40;30.87;;;18.80;99.90;;;;;;5042822;28;20484;-79
2021/06/05 04:34:46;;;;;;;43.83;33.17;;;18.80;99.90;;;;;;5031836;28;20808;-79
2021/06/05 04:37:12;;;;;;;45.80;30.60;;;18.90;99.90;;;;;;5037755;28;20430;-79
2021/06/05 04:39:40;;;;;;;43.43;33.07;;;18.90;99.90;;;;;;5045017;28;20462;-80
2021/06/05 04:42:08;;;;;;;43.80;32.13;;;19.00;99.90;;;;;;5033298;28;20453;-79
2021/06/05 04:44:34;;;;;;;46.33;33.67;;;19.00;99.90;;;;;;5047273;28;20799;-79
2021/06/05 04:47:01;;;;;;;43.00;31.00;;;19.00;99.90;;;;;;5025858;28;20849;-79
2021/06/05 04:49:29;;;;;;;48.43;32.77;;;19.00;99.90;;;;;;5040757;28;20442;-79
2021/06/05 04:51:55;;;;;;;43.67;31.10;;;19.00;99.90;;;;;;5043159;28;20470;-79
2021/06/05 04:54:23;;;;;;;46.50;30.87;;;19.10;99.90;;;;;;5042097;28;20454;-79
2021/06/05 04:56:51;;;;;;;43.90;30.80;;;19.10;99.90;;;;;;5029657;28;20533;-79
2021/06/05 04:59:20;;;;;;;43.87;30.67;;;19.20;99.90;;;;;;5034035;28;20534;-79
2021/06/05 05:01:46;;;;;;;43.13;29.80;;;19.20;99.90;;;;;;5025835;28;20454;-79
2021/06/05 05:04:17;;;;;;;42.83;30.67;;;19.20;99.90;;;;;;5048481;28;20422;-79
2021/06/05 05:06:44;;;;;;;41.67;29.40;;;19.30;99.90;;;;;;5041570;28;20488;-79
2021/06/05 05:09:13;;;;;;;44.00;30.97;;;19.40;99.90;;;;;;5026502;28;20438;-79
2021/06/05 05:11:41;;;;;;;39.67;30.63;;;19.40;99.90;;;;;;5042479;28;20506;-79
2021/06/05 05:14:09;;;;;;;39.80;29.67;;;19.40;99.90;;;;;;5034513;28;20898;-79
2021/06/05 05:16:35;;;;;;;39.50;30.80;;;19.40;99.90;;;;;;5045963;28;20438;-79
2021/06/05 05:19:04;;;;;;;40.83;30.00;;;19.50;99.90;;;;;;5036640;28;20435;-79
2021/06/05 05:21:32;;;;;;;42.37;29.87;;;19.50;99.90;;;;;;5041889;28;20577;-79
2021/06/05 05:24:01;;;;;;;38.17;28.10;;;19.60;99.90;;;;;;5033076;28;20447;-79
2021/06/05 05:26:27;;;;;;;40.17;30.50;;;19.60;99.90;;;;;;5030270;28;20423;-80
2021/06/05 05:28:56;;;;;;;40.37;28.40;;;19.70;99.90;;;;;;5034336;28;20938;-79
2021/06/05 05:31:27;;;;;;;41.90;30.97;;;19.70;99.90;;;;;;5048827;28;20490;-79
2021/06/05 05:33:54;;;;;;;39.00;30.20;;;19.70;99.90;;;;;;5034451;28;20443;-80
2021/06/05 05:36:28;;;;;;;38.37;28.70;;;19.80;99.90;;;;;;5057989;28;20444;-80
2021/06/05 05:38:55;;;;;;;37.87;28.17;;;19.90;99.90;;;;;;5053585;28;21032;-79
2021/06/05 05:41:23;;;;;;;40.13;30.87;;;19.80;99.90;;;;;;5053128;28;20526;-79
2021/06/05 05:43:50;;;;;;;38.10;28.23;;;19.90;99.90;;;;;;5060565;28;20435;-79
2021/06/05 05:46:16;;;;;;;37.10;28.47;;;19.80;99.90;;;;;;5032187;28;20448;-80
2021/06/05 05:48:42;;;;;;;39.33;27.60;;;19.80;99.90;;;;;;5048203;28;20513;-79
2021/06/05 05:51:11;;;;;;;38.20;28.13;;;19.70;99.90;;;;;;5035921;28;20462;-80
2021/06/05 05:53:40;;;;;;;36.90;28.17;;;19.70;99.90;;;;;;5035844;28;20954;-80
2021/06/05 05:56:13;;;;;;;40.43;29.60;;;19.70;99.90;;;;;;5052015;28;20426;-80
2021/06/05 05:58:43;;;;;;;41.13;28.87;;;19.70;99.90;;;;;;5035647;28;20448;-80
2021/06/05 06:01:12;;;;;;;36.67;28.17;;;19.70;99.90;;;;;;5053660;28;20433;-80
2021/06/05 06:03:39;;;;;;;37.53;29.17;;;19.70;99.90;;;;;;5052225;28;20484;-80
2021/06/05 06:06:08;;;;;;;36.30;28.50;;;19.70;99.90;;;;;;5052663;28;20431;-79
2021/06/05 06:08:35;;;;;;;41.93;29.80;;;19.80;99.90;;;;;;5052156;28;20438;-80
2021/06/05 06:11:05;;;;;;;37.27;29.00;;;19.80;99.90;;;;;;5047954;28;20534;-79
2021/06/05 06:13:33;;;;;;;37.73;27.37;;;19.90;99.90;;;;;;5035037;28;20759;-81
2021/06/05 06:16:01;;;;;;;39.03;28.43;;;19.90;99.90;;;;;;5035391;28;20438;-79
2021/06/05 06:18:27;;;;;;;35.40;26.80;;;19.90;99.90;;;;;;5035351;28;20443;-79
2021/06/05 06:20:55;;;;;;;36.50;27.43;;;19.90;99.90;;;;;;5038663;28;20439;-80
2021/06/05 06:23:26;;;;;;;36.47;26.27;;;19.90;99.90;;;;;;5051586;28;20884;-80
2021/06/05 06:25:54;;;;;;;37.73;25.53;;;19.90;99.90;;;;;;5053072;28;20507;-80
2021/06/05 06:28:26;;;;;;;33.63;25.10;;;19.90;99.90;;;;;;5055953;28;20830;-79
2021/06/05 06:30:53;;;;;;;34.97;27.77;;;19.90;99.90;;;;;;5030601;28;20463;-79
2021/06/05 06:33:20;;;;;;;35.07;27.27;;;19.80;99.90;;;;;;5003627;28;20804;-79
2021/06/05 06:35:47;;;;;;;36.20;27.27;;;19.80;99.90;;;;;;5003543;28;20431;-79
2021/06/05 06:38:18;;;;;;;34.60;26.70;;;19.80;99.90;;;;;;5033481;28;20463;-79
2021/06/05 06:40:47;;;;;;;33.73;25.80;;;19.70;99.90;;;;;;5032487;28;20514;-79
2021/06/05 06:43:21;;;;;;;43.60;28.13;;;19.70;99.90;;;;;;5019040;28;20442;-79
2021/06/05 06:45:59;;;;;;;38.00;27.70;;;19.60;99.90;;;;;;5032126;28;20438;-79
2021/06/05 06:48:27;;;;;;;37.53;27.90;;;19.60;99.90;;;;;;5034095;28;20446;-80
2021/06/05 06:50:53;;;;;;;38.60;28.40;;;19.60;99.90;;;;;;5031576;28;20588;-79
2021/06/05 06:53:19;;;;;;;39.90;27.90;;;19.50;99.90;;;;;;5020089;28;20528;-80
2021/06/05 06:55:45;;;;;;;33.47;26.03;;;19.60;99.90;;;;;;5031311;28;20786;-80
2021/06/05 06:58:12;;;;;;;43.43;27.27;;;19.60;99.90;;;;;;5035078;28;20462;-79
2021/06/05 07:00:44;;;;;;;37.70;28.00;;;19.70;99.90;;;;;;5028096;28;20977;-79
2021/06/05 07:03:11;;;;;;;38.00;28.27;;;19.70;99.90;;;;;;5020550;28;20915;-79
2021/06/05 07:05:39;;;;;;;34.77;26.83;;;19.70;99.90;;;;;;5032357;28;20432;-79
2021/06/05 07:08:30;;;;;;;34.80;27.27;;;19.70;99.90;;;;;;5036542;28;20426;-79
2021/06/05 07:11:02;;;;;;;34.63;25.87;;;19.70;99.90;;;;;;5038680;28;20442;-79
2021/06/05 07:13:29;;;;;;;34.80;26.93;;;19.70;99.90;;;;;;5024792;28;20481;-79
2021/06/05 07:15:57;;;;;;;40.23;28.80;;;19.80;99.90;;;;;;5031575;28;20430;-79
2021/06/05 07:18:30;;;;;;;41.87;30.90;;;19.70;99.90;;;;;;5031437;28;20518;-80
2021/06/05 07:21:02;;;;;;;40.93;30.07;;;19.70;99.90;;;;;;5031430;28;20446;-80
2021/06/05 07:23:33;;;;;;;36.70;26.70;;;19.70;99.90;;;;;;5018623;28;20459;-79
2021/06/05 07:26:09;;;;;;;35.57;26.87;;;19.70;99.90;;;;;;4983139;28;20446;-79
2021/06/05 07:28:39;;;;;;;38.50;28.23;;;19.70;99.90;;;;;;5034252;28;20474;-79
2021/06/05 07:31:07;;;;;;;37.97;26.80;;;19.70;99.90;;;;;;5053438;28;20482;-79
2021/06/05 07:33:33;;;;;;;37.57;27.40;;;19.70;99.90;;;;;;5051442;28;20424;-79
2021/06/05 07:36:01;;;;;;;36.83;27.90;;;19.70;99.90;;;;;;5037516;28;20591;-79
2021/06/05 07:38:31;;;;;;;36.53;28.17;;;19.80;99.90;;;;;;5064473;28;20438;-79
2021/06/05 07:40:58;;;;;;;36.77;27.63;;;19.80;99.90;;;;;;5045619;28;20433;-79
2021/06/05 07:43:28;;;;;;;37.83;28.13;;;19.90;99.90;;;;;;5039521;28;20962;-79
2021/06/05 07:45:55;;;;;;;37.40;28.37;;;19.90;99.90;;;;;;5046867;28;20462;-79
2021/06/05 07:48:25;;;;;;;37.47;28.43;;;19.90;99.90;;;;;;5028447;28;20501;-79
2021/06/05 07:50:51;;;;;;;37.17;27.90;;;19.90;99.90;;;;;;5039078;28;20976;-79
2021/06/05 07:53:17;;;;;;;36.47;28.30;;;20.00;99.90;;;;;;5060939;28;20442;-79
2021/06/05 07:55:44;;;;;;;40.83;29.27;;;20.00;99.90;;;;;;5062737;28;20887;-79
2021/06/05 07:58:12;;;;;;;40.40;29.77;;;20.00;99.90;;;;;;5054262;28;20436;-79
2021/06/05 08:00:38;;;;;;;35.90;28.20;;;20.00;99.90;;;;;;5063101;28;20420;-79
2021/06/05 08:03:08;;;;;;;37.00;27.50;;;20.10;99.90;;;;;;5041049;28;20440;-79
2021/06/05 08:05:41;;;;;;;36.03;28.10;;;20.20;99.90;;;;;;5026472;28;20773;-79
2021/06/05 08:08:10;;;;;;;38.90;28.00;;;20.20;99.90;;;;;;5067478;28;20434;-79
2021/06/05 08:10:53;;;;;;;38.33;28.50;;;20.30;99.90;;;;;;5033959;28;20917;-79
2021/06/05 08:13:19;;;;;;;34.20;27.13;;;20.40;99.90;;;;;;5035912;28;20450;-78
2021/06/05 08:15:48;;;;;;;38.07;29.57;;;20.50;99.90;;;;;;5052935;28;20445;-78
2021/06/05 08:18:14;;;;;;;38.90;29.03;;;20.60;99.90;;;;;;5053406;28;20419;-78
2021/06/05 08:20:59;;;;;;;36.00;29.20;;;20.60;99.90;;;;;;5034656;28;20488;-79
2021/06/05 08:23:27;;;;;;;38.60;28.80;;;20.50;99.90;;;;;;5054109;28;20526;-78
2021/06/05 08:25:56;;;;;;;38.80;28.47;;;20.50;99.90;;;;;;5038612;28;20441;-78
2021/06/05 08:28:24;;;;;;;39.37;28.37;;;20.50;99.90;;;;;;5061697;28;20431;-78
2021/06/05 08:30:57;;;;;;;39.83;28.60;;;20.50;99.90;;;;;;5039244;28;20545;-79
2021/06/05 08:33:23;;;;;;;39.63;27.73;;;20.50;99.90;;;;;;5053778;28;20526;-79
2021/06/05 08:35:50;;;;;;;42.40;29.10;;;20.50;99.90;;;;;;5051569;28;20436;-78
2021/06/05 08:38:20;;;;;;;39.67;30.07;;;20.50;99.90;;;;;;5036264;28;20472;-79
2021/06/05 08:41:05;;;;;;;46.40;31.90;;;20.50;99.90;;;;;;5049077;28;20431;-77
2021/06/05 08:43:39;;;;;;;44.03;30.47;;;20.60;99.90;;;;;;5043203;28;20424;-78
2021/06/05 08:46:08;;;;;;;46.83;30.63;;;20.70;99.90;;;;;;5042940;28;20428;-78
2021/06/05 08:48:37;;;;;;;42.23;29.27;;;20.80;99.90;;;;;;5036253;28;20423;-78
2021/06/05 08:51:24;;;;;;;40.70;28.30;;;20.90;99.90;;;;;;5062991;28;20455;-78
2021/06/05 08:53:55;;;;;;;42.40;28.70;;;20.90;99.90;;;;;;5071419;28;20518;-78
2021/06/05 08:56:28;;;;;;;44.80;30.27;;;20.90;99.90;;;;;;5056309;28;20789;-79
2021/06/05 08:59:01;;;;;;;42.30;29.17;;;21.00;99.90;;;;;;5040396;28;20435;-78
2021/06/05 09:01:39;;;;;;;47.63;31.37;;;21.00;99.90;;;;;;5068319;28;21000;-78
2021/06/05 09:04:16;;;;;;;41.90;29.80;;;21.00;99.90;;;;;;5054810;28;20425;-78
2021/06/05 09:06:58;;;;;;;43.63;30.93;;;21.10;99.90;;;;;;5046645;28;20453;-77
2021/06/05 09:09:32;;;;;;;40.67;29.27;;;21.10;99.90;;;;;;5069724;28;20769;-77
2021/06/05 09:12:05;;;;;;;46.47;32.20;;;21.10;99.90;;;;;;5047491;28;20472;-77
2021/06/05 09:14:31;;;;;;;40.77;30.50;;;21.10;99.90;;;;;;5047855;28;20858;-77
2021/06/05 09:17:01;;;;;;;42.10;32.93;;;21.20;99.90;;;;;;5034183;28;20618;-77
2021/06/05 09:19:32;;;;;;;43.83;31.70;;;21.30;99.90;;;;;;5041310;28;20423;-77
2021/06/05 09:22:09;;;;;;;43.27;30.53;;;21.30;99.90;;;;;;5055282;28;20446;-77
2021/06/05 09:24:38;;;;;;;43.27;31.60;;;21.30;99.90;;;;;;5052492;28;20436;-77
2021/06/05 09:27:16;;;;;;;40.87;30.27;;;21.40;99.90;;;;;;5026323;28;20513;-77
2021/06/05 09:30:06;;;;;;;44.07;31.13;;;21.40;99.90;;;;;;5051864;28;20469;-78
2021/06/05 09:32:54;;;;;;;42.90;31.10;;;21.40;99.90;;;;;;5037793;28;20499;-77
2021/06/05 09:35:33;;;;;;;40.47;30.37;;;21.50;99.90;;;;;;5043043;28;20444;-77
2021/06/05 09:38:25;;;;;;;39.80;29.80;;;21.60;99.90;;;;;;5043912;28;20470;-77
2021/06/05 09:41:04;;;;;;;42.00;30.57;;;21.70;99.90;;;;;;5037760;28;20504;-77
2021/06/05 09:43:31;;;;;;;39.10;29.53;;;21.80;99.90;;;;;;5051223;28;20426;-78
2021/06/05 09:46:07;;;;;;;37.13;30.50;;;21.90;99.90;;;;;;5054014;28;20468;-77
2021/06/05 09:48:45;;;;;;;35.97;28.70;;;21.90;99.90;;;;;;5050040;28;20769;-77
2021/06/05 09:51:29;;;;;;;38.67;30.77;;;22.00;99.90;;;;;;5038369;28;20469;-77
2021/06/05 09:54:27;;;;;;;35.33;29.50;;;22.10;99.90;;;;;;5042533;28;20912;-77
2021/06/05 09:56:53;;;;;;;38.43;29.60;;;22.20;99.90;;;;;;5053114;28;20443;-77
2021/06/05 09:59:29;;;;;;;41.40;32.50;;;22.50;99.90;;;;;;5056509;28;20460;-78
2021/06/05 10:02:21;;;;;;;41.50;30.90;;;22.50;99.90;;;;;;5038877;28;20532;-77
2021/06/05 10:05:05;;;;;;;38.97;29.40;;;22.50;99.90;;;;;;5040632;28;20928;-77
2021/06/05 10:07:37;;;;;;;38.20;29.97;;;22.40;99.90;;;;;;5021792;28;20430;-77
2021/06/05 10:10:34;;;;;;;42.50;32.43;;;22.20;99.90;;;;;;5022147;28;20440;-78
2021/06/05 10:13:05;;;;;;;44.53;32.37;;;22.10;99.90;;;;;;5045440;28;20643;-77
2021/06/05 10:15:39;;;;;;;49.00;34.33;;;21.90;99.90;;;;;;5045393;28;20522;-77
2021/06/05 10:18:13;;;;;;;43.67;32.17;;;21.80;99.90;;;;;;5059097;28;20438;-76
2021/06/05 10:21:05;;;;;;;48.67;33.30;;;21.80;99.90;;;;;;5039590;28;20464;-76
2021/06/05 10:23:35;;;;;;;46.27;33.70;;;21.80;99.90;;;;;;5033461;28;20448;-77
2021/06/05 10:26:07;;;;;;;48.40;33.50;;;21.90;99.90;;;;;;5031059;28;20816;-76
2021/06/05 10:28:42;;;;;;;39.27;31.73;;;22.00;99.90;;;;;;5051264;28;20434;-77
2021/06/05 10:31:17;;;;;;;46.83;35.50;;;22.30;99.90;;;;;;5031106;28;20891;-76
2021/06/05 10:33:49;;;;;;;46.00;33.97;;;22.50;99.90;;;;;;5043062;28;20501;-77
2021/06/05 10:36:22;;;;;;;46.30;34.77;;;22.70;99.90;;;;;;5043728;28;20450;-77
2021/06/05 10:38:58;;;;;;;44.07;33.50;;;22.90;99.90;;;;;;5060666;28;20466;-77
2021/06/05 10:41:33;;;;;;;50.40;33.47;;;23.10;99.90;;;;;;5062401;28;20528;-77
2021/06/05 10:44:00;;;;;;;46.83;33.00;;;22.90;99.90;;;;;;5040381;28;20431;-76
2021/06/05 10:46:53;;;;;;;43.30;31.47;;;22.70;99.90;;;;;;5037724;28;20521;-77
2021/06/05 10:49:21;;;;;;;41.30;30.10;;;22.50;99.90;;;;;;5044982;28;20930;-77
2021/06/05 10:51:53;;;;;;;44.87;30.87;;;22.40;99.90;;;;;;5057298;28;20476;-77
2021/06/05 10:54:27;;;;;;;47.40;33.80;;;22.50;99.90;;;;;;5023476;28;20441;-77
2021/06/05 10:57:18;;;;;;;48.03;34.17;;;22.60;99.90;;;;;;5030297;28;20976;-77
2021/06/05 10:59:52;;;;;;;44.53;33.30;;;22.50;99.90;;;;;;5033315;28;20773;-76
2021/06/05 11:02:32;;;;;;;45.63;31.40;;;22.50;99.90;;;;;;5060557;28;20439;-76
2021/06/05 11:05:02;;;;;;;43.43;33.10;;;22.70;99.90;;;;;;5067046;28;20426;-76
2021/06/05 11:07:33;;;;;;;45.60;34.57;;;22.80;99.90;;;;;;5070803;28;20507;-77
2021/06/05 11:10:04;;;;;;;46.97;34.83;;;22.80;99.90;;;;;;5058936;28;20417;-76
2021/06/05 11:12:30;;;;;;;48.73;37.00;;;22.90;99.90;;;;;;5037469;28;20824;-76
2021/06/05 11:15:01;;;;;;;49.07;34.10;;;23.00;99.90;;;;;;5065450;28;20424;-76
2021/06/05 11:17:38;;;;;;;50.00;35.30;;;23.00;99.90;;;;;;5062890;28;20472;-76
2021/06/05 11:20:08;;;;;;;54.67;40.27;;;22.90;99.90;;;;;;5063472;28;20425;-76
2021/06/05 11:22:52;;;;;;;56.20;40.13;;;23.00;99.90;;;;;;5055426;28;20500;-76
2021/06/05 11:25:25;;;;;;;60.50;40.57;;;23.00;99.90;;;;;;5056972;28;20988;-77
2021/06/05 11:27:53;;;;;;;59.23;42.70;;;22.90;99.90;;;;;;5056463;28;20531;-77
2021/06/05 11:30:22;;;;;;;56.73;41.40;;;22.90;99.90;;;;;;5050783;28;20860;-76
2021/06/05 11:32:51;;;;;;;54.77;40.90;;;23.10;99.90;;;;;;5036659;28;20533;-77
2021/06/05 11:35:42;;;;;;;57.10;41.23;;;23.20;99.90;;;;;;5041545;28;20415;-77
2021/06/05 11:38:18;;;;;;;58.57;42.17;;;23.20;99.90;;;;;;5035566;28;20435;-76
2021/06/05 11:40:48;;;;;;;58.60;44.47;;;23.10;99.90;;;;;;5029935;28;20523;-77
2021/06/05 11:44:00;;;;;;;60.47;47.17;;;23.00;99.90;;;;;;5029048;28;20488;-77
2021/06/05 11:46:32;;;;;;;68.87;48.73;;;22.90;99.90;;;;;;5041858;28;20458;-77
2021/06/05 11:49:04;;;;;;;67.33;48.27;;;22.80;99.90;;;;;;5040389;28;20437;-78
2021/06/05 11:51:46;;;;;;;68.47;49.80;;;22.60;99.90;;;;;;5035693;28;20959;-78
2021/06/05 11:54:14;;;;;;;71.10;49.07;;;22.40;99.90;;;;;;5035476;28;20429;-77
2021/06/05 11:56:46;;;;;;;68.23;50.60;;;22.20;99.90;;;;;;5035492;28;20539;-77
2021/06/05 11:59:20;;;;;;;71.47;51.93;;;22.10;99.90;;;;;;5034985;28;21130;-77
2021/06/05 12:01:48;;;;;;;69.80;52.30;;;22.00;99.90;;;;;;5045576;28;20436;-77
2021/06/05 12:04:23;;;;;;;80.00;53.40;;;21.80;99.90;;;;;;5034917;28;20803;-77
2021/06/05 12:06:50;;;;;;;78.57;54.90;;;21.70;99.90;;;;;;5041390;28;20434;-77
2021/06/05 12:09:22;;;;;;;78.50;52.30;;;21.60;99.90;;;;;;5039200;28;20447;-77
2021/06/05 12:11:55;;;;;;;84.13;55.47;;;21.50;99.90;;;;;;5040388;28;20515;-77
2021/06/05 12:14:47;;;;;;;78.93;54.67;;;21.30;99.90;;;;;;5039247;28;20439;-77
2021/06/05 12:17:24;;;;;;;87.07;55.77;;;21.10;99.90;;;;;;5035889;28;20488;-78
2021/06/05 12:19:53;;;;;;;78.10;56.60;;;20.90;99.90;;;;;;5028193;28;20432;-77
2021/06/05 12:22:30;;;;;;;84.40;59.50;;;20.70;99.90;;;;;;5034520;28;20435;-77
2021/06/05 12:25:02;;;;;;;79.03;56.30;;;20.60;99.90;;;;;;5042493;28;20438;-79
2021/06/05 12:27:35;;;;;;;82.80;58.57;;;20.50;99.90;;;;;;5034115;28;20449;-79
2021/06/05 12:30:26;;;;;;;82.17;58.37;;;20.50;99.90;;;;;;5036657;28;20809;-79
2021/06/05 12:33:05;;;;;;;78.47;55.93;;;20.50;99.90;;;;;;5052508;28;20616;-79
2021/06/05 12:35:39;;;;;;;77.53;56.37;;;20.50;99.90;;;;;;5053785;28;20438;-79
2021/06/05 12:38:11;;;;;;;87.00;57.83;;;20.50;99.90;;;;;;5053183;28;20451;-79
2021/06/05 12:41:07;;;;;;;83.97;57.43;;;20.30;99.90;;;;;;5025591;28;20436;-79
2021/06/05 12:43:36;;;;;;;85.67;56.57;;;20.30;99.90;;;;;;5040206;28;20914;-79
2021/06/05 12:46:08;;;;;;;87.83;57.03;;;20.20;99.90;;;;;;5053809;28;20446;-79
2021/06/05 12:48:35;;;;;;;88.47;57.33;;;20.20;99.90;;;;;;5053986;28;20433;-79
2021/06/05 12:51:07;;;;;;;85.50;56.07;;;20.30;99.90;;;;;;5042433;28;20977;-79
2021/06/05 12:53:36;;;;;;;80.73;53.67;;;20.30;99.90;;;;;;5053534;28;20470;-79